sensor_id;sensor_type;location;lat;lon;timestamp;P1;durP1;ratioP1;P2;durP2;ratioP2
7795;SDS011;3942;51.518;6.912;2022-10-31T00:04:16;20.40;;;10.07;;
7795;SDS011;3942;51.518;6.912;2022-10-31T00:09:18;22.10;;;10.63;;
7795;SDS011;3942;51.518;6.912;2022-10-31T00:14:20;30.40;;;17.73;;
7795;SDS011;3942;51.518;6.912;2022-10-31T00:19:24;21.25;;;12.38;;
7795;SDS011;3942;51.518;6.912;2022-10-31T00:24:26;19.88;;;10.30;;
7795;SDS011;3942;51.518;6.912;2022-10-31T00:29:28;20.05;;;10.35;;
7795;SDS011;3942;51.518;6.912;2022-10-31T00:34:31;21.17;;;10.20;;
7795;SDS011;3942;51.518;6.912;2022-10-31T00:39:33;17.42;;;9.95;;
7795;SDS011;3942;51.518;6.912;2022-10-31T00:44:35;19.60;;;10.48;;
7795;SDS011;3942;51.518;6.912;2022-10-31T00:49:39;22.55;;;10.75;;
7795;SDS011;3942;51.518;6.912;2022-10-31T00:54:41;16.83;;;9.57;;
7795;SDS011;3942;51.518;6.912;2022-10-31T00:59:43;20.40;;;10.20;;
7795;SDS011;3942;51.518;6.912;2022-10-31T01:04:46;18.25;;;9.52;;
7795;SDS011;3942;51.518;6.912;2022-10-31T01:09:48;17.95;;;9.95;;
7795;SDS011;3942;51.518;6.912;2022-10-31T01:14:50;17.70;;;10.40;;
7795;SDS011;3942;51.518;6.912;2022-10-31T01:19:54;24.38;;;11.65;;
7795;SDS011;3942;51.518;6.912;2022-10-31T01:24:55;21.52;;;11.20;;
7795;SDS011;3942;51.518;6.912;2022-10-31T01:29:57;22.00;;;10.35;;
7795;SDS011;3942;51.518;6.912;2022-10-31T01:35:01;20.77;;;12.07;;
7795;SDS011;3942;51.518;6.912;2022-10-31T01:40:04;22.60;;;10.90;;
7795;SDS011;3942;51.518;6.912;2022-10-31T01:45:09;21.48;;;11.00;;
7795;SDS011;3942;51.518;6.912;2022-10-31T01:50:26;19.67;;;10.73;;
7795;SDS011;3942;51.518;6.912;2022-10-31T01:55:30;20.45;;;11.77;;
7795;SDS011;3942;51.518;6.912;2022-10-31T02:00:34;22.52;;;11.13;;
7795;SDS011;3942;51.518;6.912;2022-10-31T02:05:37;24.95;;;10.52;;
7795;SDS011;3942;51.518;6.912;2022-10-31T02:10:40;20.52;;;10.63;;
7795;SDS011;3942;51.518;6.912;2022-10-31T02:15:42;21.83;;;11.57;;
7795;SDS011;3942;51.518;6.912;2022-10-31T02:20:50;23.85;;;10.48;;
7795;SDS011;3942;51.518;6.912;2022-10-31T02:26:02;19.40;;;10.70;;
7795;SDS011;3942;51.518;6.912;2022-10-31T02:31:14;21.15;;;10.93;;
7795;SDS011;3942;51.518;6.912;2022-10-31T02:36:22;21.30;;;10.02;;
7795;SDS011;3942;51.518;6.912;2022-10-31T02:41:35;20.05;;;11.68;;
7795;SDS011;3942;51.518;6.912;2022-10-31T02:46:43;25.27;;;11.85;;
7795;SDS011;3942;51.518;6.912;2022-10-31T02:51:46;17.80;;;9.87;;
7795;SDS011;3942;51.518;6.912;2022-10-31T02:56:49;23.23;;;12.38;;
7795;SDS011;3942;51.518;6.912;2022-10-31T03:02:08;19.00;;;10.48;;
7795;SDS011;3942;51.518;6.912;2022-10-31T03:07:19;19.23;;;9.68;;
7795;SDS011;3942;51.518;6.912;2022-10-31T03:12:24;25.65;;;10.95;;
7795;SDS011;3942;51.518;6.912;2022-10-31T03:17:33;26.75;;;11.50;;
7795;SDS011;3942;51.518;6.912;2022-10-31T03:22:35;29.83;;;16.05;;
7795;SDS011;3942;51.518;6.912;2022-10-31T03:27:40;23.90;;;11.52;;
7795;SDS011;3942;51.518;6.912;2022-10-31T03:32:46;21.05;;;11.80;;
7795;SDS011;3942;51.518;6.912;2022-10-31T03:37:51;22.90;;;11.15;;
7795;SDS011;3942;51.518;6.912;2022-10-31T03:42:55;30.13;;;14.98;;
7795;SDS011;3942;51.518;6.912;2022-10-31T03:48:03;26.17;;;11.80;;
7795;SDS011;3942;51.518;6.912;2022-10-31T03:53:06;21.67;;;11.63;;
7795;SDS011;3942;51.518;6.912;2022-10-31T03:58:16;31.60;;;15.80;;
7795;SDS011;3942;51.518;6.912;2022-10-31T04:03:22;21.27;;;11.57;;
7795;SDS011;3942;51.518;6.912;2022-10-31T04:08:27;25.98;;;12.55;;
7795;SDS011;3942;51.518;6.912;2022-10-31T04:13:31;26.88;;;13.30;;
7795;SDS011;3942;51.518;6.912;2022-10-31T04:18:38;31.05;;;13.13;;
7795;SDS011;3942;51.518;6.912;2022-10-31T04:23:40;24.83;;;12.68;;
7795;SDS011;3942;51.518;6.912;2022-10-31T04:28:42;26.48;;;12.50;;
7795;SDS011;3942;51.518;6.912;2022-10-31T04:33:45;26.17;;;13.80;;
7795;SDS011;3942;51.518;6.912;2022-10-31T04:38:47;27.02;;;13.48;;
7795;SDS011;3942;51.518;6.912;2022-10-31T04:43:49;19.55;;;11.27;;
7795;SDS011;3942;51.518;6.912;2022-10-31T04:48:53;31.05;;;13.07;;
7795;SDS011;3942;51.518;6.912;2022-10-31T04:53:55;23.77;;;11.65;;
7795;SDS011;3942;51.518;6.912;2022-10-31T04:58:57;24.83;;;11.93;;
7795;SDS011;3942;51.518;6.912;2022-10-31T05:04:00;25.73;;;11.95;;
7795;SDS011;3942;51.518;6.912;2022-10-31T05:09:02;22.60;;;11.52;;
7795;SDS011;3942;51.518;6.912;2022-10-31T05:14:05;21.80;;;12.27;;
7795;SDS011;3942;51.518;6.912;2022-10-31T05:19:08;23.77;;;12.70;;
7795;SDS011;3942;51.518;6.912;2022-10-31T05:24:10;32.58;;;13.57;;
7795;SDS011;3942;51.518;6.912;2022-10-31T05:29:12;27.52;;;13.65;;
7795;SDS011;3942;51.518;6.912;2022-10-31T05:34:15;22.58;;;12.43;;
7795;SDS011;3942;51.518;6.912;2022-10-31T05:39:17;24.15;;;12.68;;
7795;SDS011;3942;51.518;6.912;2022-10-31T05:44:20;20.83;;;12.13;;
7795;SDS011;3942;51.518;6.912;2022-10-31T05:49:23;23.80;;;11.27;;
7795;SDS011;3942;51.518;6.912;2022-10-31T05:54:25;26.33;;;11.30;;
7795;SDS011;3942;51.518;6.912;2022-10-31T05:59:27;31.55;;;14.23;;
7795;SDS011;3942;51.518;6.912;2022-10-31T06:04:30;30.33;;;13.13;;
7795;SDS011;3942;51.518;6.912;2022-10-31T06:09:33;40.05;;;14.40;;
7795;SDS011;3942;51.518;6.912;2022-10-31T06:14:35;27.65;;;15.27;;
7795;SDS011;3942;51.518;6.912;2022-10-31T06:19:38;24.95;;;13.32;;
7795;SDS011;3942;51.518;6.912;2022-10-31T06:24:40;28.80;;;13.18;;
7795;SDS011;3942;51.518;6.912;2022-10-31T06:29:42;28.58;;;14.27;;
7795;SDS011;3942;51.518;6.912;2022-10-31T06:34:47;28.50;;;13.00;;
7795;SDS011;3942;51.518;6.912;2022-10-31T06:39:49;32.42;;;14.00;;
7795;SDS011;3942;51.518;6.912;2022-10-31T06:44:51;25.80;;;14.38;;
7795;SDS011;3942;51.518;6.912;2022-10-31T06:49:54;28.58;;;14.50;;
7795;SDS011;3942;51.518;6.912;2022-10-31T06:54:56;28.35;;;15.43;;
7795;SDS011;3942;51.518;6.912;2022-10-31T06:59:58;33.95;;;16.02;;
7795;SDS011;3942;51.518;6.912;2022-10-31T07:05:02;36.90;;;16.20;;
7795;SDS011;3942;51.518;6.912;2022-10-31T07:10:04;29.33;;;16.65;;
7795;SDS011;3942;51.518;6.912;2022-10-31T07:15:07;31.92;;;16.15;;
7795;SDS011;3942;51.518;6.912;2022-10-31T07:20:10;36.08;;;15.02;;
7795;SDS011;3942;51.518;6.912;2022-10-31T07:25:12;32.58;;;16.10;;
7795;SDS011;3942;51.518;6.912;2022-10-31T07:30:14;34.40;;;16.45;;
7795;SDS011;3942;51.518;6.912;2022-10-31T07:35:26;31.05;;;16.98;;
7795;SDS011;3942;51.518;6.912;2022-10-31T07:40:32;46.42;;;22.85;;
7795;SDS011;3942;51.518;6.912;2022-10-31T07:45:34;33.65;;;16.63;;
7795;SDS011;3942;51.518;6.912;2022-10-31T07:50:38;33.75;;;14.75;;
7795;SDS011;3942;51.518;6.912;2022-10-31T07:55:40;28.67;;;16.80;;
7795;SDS011;3942;51.518;6.912;2022-10-31T08:00:44;42.95;;;21.00;;
7795;SDS011;3942;51.518;6.912;2022-10-31T08:05:48;35.17;;;18.48;;
7795;SDS011;3942;51.518;6.912;2022-10-31T08:10:50;36.85;;;19.42;;
7795;SDS011;3942;51.518;6.912;2022-10-31T08:15:52;36.50;;;18.42;;
7795;SDS011;3942;51.518;6.912;2022-10-31T08:20:57;34.20;;;18.70;;
7795;SDS011;3942;51.518;6.912;2022-10-31T08:25:59;32.60;;;18.10;;
7795;SDS011;3942;51.518;6.912;2022-10-31T08:31:01;36.42;;;20.05;;
7795;SDS011;3942;51.518;6.912;2022-10-31T08:36:06;37.22;;;19.77;;
7795;SDS011;3942;51.518;6.912;2022-10-31T08:41:08;32.55;;;19.13;;
7795;SDS011;3942;51.518;6.912;2022-10-31T08:57:01;36.70;;;19.38;;
7795;SDS011;3942;51.518;6.912;2022-10-31T09:02:04;37.35;;;20.17;;
7795;SDS011;3942;51.518;6.912;2022-10-31T09:07:08;34.47;;;18.83;;
7795;SDS011;3942;51.518;6.912;2022-10-31T09:12:09;37.60;;;17.40;;
7795;SDS011;3942;51.518;6.912;2022-10-31T09:17:11;37.03;;;18.08;;
7795;SDS011;3942;51.518;6.912;2022-10-31T09:22:15;33.80;;;19.02;;
7795;SDS011;3942;51.518;6.912;2022-10-31T09:27:17;37.13;;;18.80;;
7795;SDS011;3942;51.518;6.912;2022-10-31T09:32:19;39.65;;;19.75;;
7795;SDS011;3942;51.518;6.912;2022-10-31T09:37:22;37.47;;;18.23;;
7795;SDS011;3942;51.518;6.912;2022-10-31T09:42:28;36.53;;;19.17;;
7795;SDS011;3942;51.518;6.912;2022-10-31T09:47:33;35.00;;;18.55;;
7795;SDS011;3942;51.518;6.912;2022-10-31T09:52:53;38.40;;;20.50;;
7795;SDS011;3942;51.518;6.912;2022-10-31T09:57:59;38.03;;;19.58;;
7795;SDS011;3942;51.518;6.912;2022-10-31T10:03:04;40.83;;;19.75;;
7795;SDS011;3942;51.518;6.912;2022-10-31T10:08:10;33.10;;;17.08;;
7795;SDS011;3942;51.518;6.912;2022-10-31T10:13:22;41.35;;;21.50;;
7795;SDS011;3942;51.518;6.912;2022-10-31T10:18:56;59.05;;;28.20;;
7795;SDS011;3942;51.518;6.912;2022-10-31T10:24:07;60.45;;;29.88;;
7795;SDS011;3942;51.518;6.912;2022-10-31T10:29:17;44.80;;;21.65;;
7795;SDS011;3942;51.518;6.912;2022-10-31T10:34:31;48.65;;;21.48;;
7795;SDS011;3942;51.518;6.912;2022-10-31T10:39:36;38.65;;;20.15;;
7795;SDS011;3942;51.518;6.912;2022-10-31T10:44:43;38.65;;;21.20;;
7795;SDS011;3942;51.518;6.912;2022-10-31T10:50:06;49.22;;;25.08;;
7795;SDS011;3942;51.518;6.912;2022-10-31T10:55:12;42.00;;;22.17;;
7795;SDS011;3942;51.518;6.912;2022-10-31T11:00:21;49.63;;;21.85;;
7795;SDS011;3942;51.518;6.912;2022-10-31T11:05:26;47.40;;;20.55;;
7795;SDS011;3942;51.518;6.912;2022-10-31T11:10:36;45.35;;;22.55;;
7795;SDS011;3942;51.518;6.912;2022-10-31T11:15:48;48.60;;;22.63;;
7795;SDS011;3942;51.518;6.912;2022-10-31T11:20:52;40.47;;;19.70;;
7795;SDS011;3942;51.518;6.912;2022-10-31T11:25:56;39.80;;;20.63;;
7795;SDS011;3942;51.518;6.912;2022-10-31T11:31:00;38.58;;;19.65;;
7795;SDS011;3942;51.518;6.912;2022-10-31T11:36:13;40.28;;;18.98;;
7795;SDS011;3942;51.518;6.912;2022-10-31T11:41:18;39.03;;;18.85;;
7795;SDS011;3942;51.518;6.912;2022-10-31T11:46:33;37.72;;;17.77;;
7795;SDS011;3942;51.518;6.912;2022-10-31T11:51:36;37.88;;;18.10;;
7795;SDS011;3942;51.518;6.912;2022-10-31T11:56:40;40.95;;;17.85;;
7795;SDS011;3942;51.518;6.912;2022-10-31T12:01:46;39.85;;;18.83;;
7795;SDS011;3942;51.518;6.912;2022-10-31T12:06:49;45.72;;;19.38;;
7795;SDS011;3942;51.518;6.912;2022-10-31T12:12:03;32.00;;;17.92;;
7795;SDS011;3942;51.518;6.912;2022-10-31T12:17:09;32.83;;;16.45;;
7795;SDS011;3942;51.518;6.912;2022-10-31T12:22:17;33.40;;;17.15;;
7795;SDS011;3942;51.518;6.912;2022-10-31T12:27:30;30.50;;;16.92;;
7795;SDS011;3942;51.518;6.912;2022-10-31T12:32:48;30.17;;;15.95;;
7795;SDS011;3942;51.518;6.912;2022-10-31T12:38:06;31.85;;;16.52;;
7795;SDS011;3942;51.518;6.912;2022-10-31T12:43:34;25.70;;;13.43;;
7795;SDS011;3942;51.518;6.912;2022-10-31T12:48:45;30.80;;;15.10;;
7795;SDS011;3942;51.518;6.912;2022-10-31T12:53:52;28.45;;;13.18;;
7795;SDS011;3942;51.518;6.912;2022-10-31T12:59:01;29.80;;;13.38;;
7795;SDS011;3942;51.518;6.912;2022-10-31T13:04:13;26.80;;;12.70;;
7795;SDS011;3942;51.518;6.912;2022-10-31T13:09:18;22.85;;;11.95;;
7795;SDS011;3942;51.518;6.912;2022-10-31T13:14:25;34.40;;;14.17;;
7795;SDS011;3942;51.518;6.912;2022-10-31T13:19:29;23.13;;;10.93;;
7795;SDS011;3942;51.518;6.912;2022-10-31T13:24:36;23.05;;;12.63;;
7795;SDS011;3942;51.518;6.912;2022-10-31T13:29:52;21.95;;;9.93;;
7795;SDS011;3942;51.518;6.912;2022-10-31T13:35:03;31.48;;;11.60;;
7795;SDS011;3942;51.518;6.912;2022-10-31T13:40:12;21.98;;;11.15;;
7795;SDS011;3942;51.518;6.912;2022-10-31T13:45:23;16.40;;;9.73;;
7795;SDS011;3942;51.518;6.912;2022-10-31T13:50:26;25.60;;;10.43;;
7795;SDS011;3942;51.518;6.912;2022-10-31T13:55:34;24.33;;;11.50;;
7795;SDS011;3942;51.518;6.912;2022-10-31T14:00:39;20.27;;;10.90;;
7795;SDS011;3942;51.518;6.912;2022-10-31T14:05:41;24.00;;;10.23;;
7795;SDS011;3942;51.518;6.912;2022-10-31T14:10:46;25.65;;;11.02;;
7795;SDS011;3942;51.518;6.912;2022-10-31T14:15:55;23.02;;;11.00;;
7795;SDS011;3942;51.518;6.912;2022-10-31T14:20:58;22.85;;;11.95;;
7795;SDS011;3942;51.518;6.912;2022-10-31T14:26:07;21.25;;;10.65;;
7795;SDS011;3942;51.518;6.912;2022-10-31T14:31:25;31.90;;;10.82;;
7795;SDS011;3942;51.518;6.912;2022-10-31T14:36:31;23.30;;;10.57;;
7795;SDS011;3942;51.518;6.912;2022-10-31T14:41:43;20.40;;;10.05;;
7795;SDS011;3942;51.518;6.912;2022-10-31T14:46:50;16.27;;;9.73;;
7795;SDS011;3942;51.518;6.912;2022-10-31T14:52:04;27.65;;;10.05;;
7795;SDS011;3942;51.518;6.912;2022-10-31T14:57:08;18.55;;;8.50;;
7795;SDS011;3942;51.518;6.912;2022-10-31T15:02:13;17.48;;;8.30;;
7795;SDS011;3942;51.518;6.912;2022-10-31T15:07:16;15.27;;;8.13;;
7795;SDS011;3942;51.518;6.912;2022-10-31T15:12:23;16.25;;;7.53;;
7795;SDS011;3942;51.518;6.912;2022-10-31T15:17:27;17.33;;;6.57;;
7795;SDS011;3942;51.518;6.912;2022-10-31T15:22:29;18.85;;;6.78;;
7795;SDS011;3942;51.518;6.912;2022-10-31T15:27:32;11.80;;;5.70;;
7795;SDS011;3942;51.518;6.912;2022-10-31T15:32:36;16.33;;;6.90;;
7795;SDS011;3942;51.518;6.912;2022-10-31T15:37:45;22.30;;;7.55;;
7795;SDS011;3942;51.518;6.912;2022-10-31T15:42:49;21.00;;;7.70;;
7795;SDS011;3942;51.518;6.912;2022-10-31T15:47:55;23.83;;;7.78;;
7795;SDS011;3942;51.518;6.912;2022-10-31T15:52:58;17.42;;;7.50;;
7795;SDS011;3942;51.518;6.912;2022-10-31T15:58:01;20.13;;;6.35;;
7795;SDS011;3942;51.518;6.912;2022-10-31T16:03:09;14.52;;;6.70;;
7795;SDS011;3942;51.518;6.912;2022-10-31T16:08:23;11.65;;;5.18;;
7795;SDS011;3942;51.518;6.912;2022-10-31T16:13:26;17.42;;;6.20;;
7795;SDS011;3942;51.518;6.912;2022-10-31T16:18:30;14.88;;;6.05;;
7795;SDS011;3942;51.518;6.912;2022-10-31T16:23:37;14.38;;;6.00;;
7795;SDS011;3942;51.518;6.912;2022-10-31T16:28:49;16.30;;;6.32;;
7795;SDS011;3942;51.518;6.912;2022-10-31T16:34:02;21.27;;;9.30;;
7795;SDS011;3942;51.518;6.912;2022-10-31T16:39:05;22.35;;;11.27;;
7795;SDS011;3942;51.518;6.912;2022-10-31T16:44:14;30.58;;;14.98;;
7795;SDS011;3942;51.518;6.912;2022-10-31T16:49:18;59.45;;;26.58;;
7795;SDS011;3942;51.518;6.912;2022-10-31T16:54:20;12.68;;;7.32;;
7795;SDS011;3942;51.518;6.912;2022-10-31T16:59:22;21.38;;;7.80;;
7795;SDS011;3942;51.518;6.912;2022-10-31T17:04:26;16.75;;;7.47;;
7795;SDS011;3942;51.518;6.912;2022-10-31T17:09:28;19.90;;;7.97;;
7795;SDS011;3942;51.518;6.912;2022-10-31T17:14:30;22.50;;;9.23;;
7795;SDS011;3942;51.518;6.912;2022-10-31T17:19:34;16.13;;;7.85;;
7795;SDS011;3942;51.518;6.912;2022-10-31T17:24:36;25.30;;;8.00;;
7795;SDS011;3942;51.518;6.912;2022-10-31T17:29:37;17.45;;;7.95;;
7795;SDS011;3942;51.518;6.912;2022-10-31T17:34:41;23.45;;;8.05;;
7795;SDS011;3942;51.518;6.912;2022-10-31T17:39:43;22.80;;;9.40;;
7795;SDS011;3942;51.518;6.912;2022-10-31T17:44:45;18.95;;;8.02;;
7795;SDS011;3942;51.518;6.912;2022-10-31T17:49:48;17.30;;;8.40;;
7795;SDS011;3942;51.518;6.912;2022-10-31T17:54:52;25.30;;;9.43;;
7795;SDS011;3942;51.518;6.912;2022-10-31T17:59:54;25.73;;;8.98;;
7795;SDS011;3942;51.518;6.912;2022-10-31T18:04:57;22.05;;;9.23;;
7795;SDS011;3942;51.518;6.912;2022-10-31T18:10:01;20.85;;;8.48;;
7795;SDS011;3942;51.518;6.912;2022-10-31T18:15:04;17.40;;;7.20;;
7795;SDS011;3942;51.518;6.912;2022-10-31T18:20:08;16.42;;;6.68;;
7795;SDS011;3942;51.518;6.912;2022-10-31T18:25:11;13.40;;;6.72;;
7795;SDS011;3942;51.518;6.912;2022-10-31T18:30:13;12.98;;;6.10;;
7795;SDS011;3942;51.518;6.912;2022-10-31T18:35:16;13.25;;;4.65;;
7795;SDS011;3942;51.518;6.912;2022-10-31T18:40:18;14.88;;;4.72;;
7795;SDS011;3942;51.518;6.912;2022-10-31T18:45:22;12.48;;;5.43;;
7795;SDS011;3942;51.518;6.912;2022-10-31T18:50:25;14.75;;;3.88;;
7795;SDS011;3942;51.518;6.912;2022-10-31T18:55:27;7.32;;;3.22;;
7795;SDS011;3942;51.518;6.912;2022-10-31T19:00:29;10.73;;;3.25;;
7795;SDS011;3942;51.518;6.912;2022-10-31T19:05:32;11.32;;;3.10;;
7795;SDS011;3942;51.518;6.912;2022-10-31T19:10:35;9.80;;;3.78;;
7795;SDS011;3942;51.518;6.912;2022-10-31T19:15:37;10.50;;;4.00;;
7795;SDS011;3942;51.518;6.912;2022-10-31T19:20:40;9.00;;;3.30;;
7795;SDS011;3942;51.518;6.912;2022-10-31T19:25:42;10.13;;;3.15;;
7795;SDS011;3942;51.518;6.912;2022-10-31T19:30:50;16.98;;;4.10;;
7795;SDS011;3942;51.518;6.912;2022-10-31T19:35:55;10.30;;;3.45;;
7795;SDS011;3942;51.518;6.912;2022-10-31T19:41:00;10.70;;;4.05;;
7795;SDS011;3942;51.518;6.912;2022-10-31T19:46:04;9.27;;;3.38;;
7795;SDS011;3942;51.518;6.912;2022-10-31T19:51:09;9.07;;;3.30;;
7795;SDS011;3942;51.518;6.912;2022-10-31T19:56:12;9.13;;;2.90;;
7795;SDS011;3942;51.518;6.912;2022-10-31T20:01:16;8.98;;;3.30;;
7795;SDS011;3942;51.518;6.912;2022-10-31T20:06:22;8.52;;;3.28;;
7795;SDS011;3942;51.518;6.912;2022-10-31T20:11:26;8.52;;;3.45;;
7795;SDS011;3942;51.518;6.912;2022-10-31T20:16:28;13.45;;;4.63;;
7795;SDS011;3942;51.518;6.912;2022-10-31T20:21:34;7.00;;;3.05;;
7795;SDS011;3942;51.518;6.912;2022-10-31T20:26:36;9.88;;;3.30;;
7795;SDS011;3942;51.518;6.912;2022-10-31T20:31:39;8.02;;;3.53;;
7795;SDS011;3942;51.518;6.912;2022-10-31T20:36:43;8.63;;;3.60;;
7795;SDS011;3942;51.518;6.912;2022-10-31T20:41:46;6.63;;;3.22;;
7795;SDS011;3942;51.518;6.912;2022-10-31T20:46:48;10.43;;;4.57;;
7795;SDS011;3942;51.518;6.912;2022-10-31T20:51:52;9.43;;;3.30;;
7795;SDS011;3942;51.518;6.912;2022-10-31T20:56:54;7.90;;;3.30;;
7795;SDS011;3942;51.518;6.912;2022-10-31T21:01:56;10.35;;;4.25;;
7795;SDS011;3942;51.518;6.912;2022-10-31T21:07:00;9.70;;;3.92;;
7795;SDS011;3942;51.518;6.912;2022-10-31T21:12:01;12.68;;;4.10;;
7795;SDS011;3942;51.518;6.912;2022-10-31T21:17:04;6.97;;;3.10;;
7795;SDS011;3942;51.518;6.912;2022-10-31T21:22:08;11.85;;;4.10;;
7795;SDS011;3942;51.518;6.912;2022-10-31T21:27:10;13.18;;;3.90;;
7795;SDS011;3942;51.518;6.912;2022-10-31T21:32:11;13.32;;;4.28;;
7795;SDS011;3942;51.518;6.912;2022-10-31T21:37:15;10.85;;;3.50;;
7795;SDS011;3942;51.518;6.912;2022-10-31T21:42:19;9.38;;;4.10;;
7795;SDS011;3942;51.518;6.912;2022-10-31T21:47:22;30.00;;;15.05;;
7795;SDS011;3942;51.518;6.912;2022-10-31T21:52:25;8.93;;;4.13;;
7795;SDS011;3942;51.518;6.912;2022-10-31T21:57:27;11.18;;;5.05;;
7795;SDS011;3942;51.518;6.912;2022-10-31T22:02:29;12.52;;;4.13;;
7795;SDS011;3942;51.518;6.912;2022-10-31T22:07:33;9.93;;;4.05;;
7795;SDS011;3942;51.518;6.912;2022-10-31T22:12:35;8.63;;;4.13;;
7795;SDS011;3942;51.518;6.912;2022-10-31T22:17:38;13.48;;;4.80;;
7795;SDS011;3942;51.518;6.912;2022-10-31T22:22:41;7.95;;;4.03;;
7795;SDS011;3942;51.518;6.912;2022-10-31T22:27:43;8.10;;;4.10;;
7795;SDS011;3942;51.518;6.912;2022-10-31T22:32:45;19.70;;;9.70;;
7795;SDS011;3942;51.518;6.912;2022-10-31T22:37:50;10.20;;;6.35;;
7795;SDS011;3942;51.518;6.912;2022-10-31T22:42:51;9.55;;;4.45;;
7795;SDS011;3942;51.518;6.912;2022-10-31T22:47:54;11.23;;;3.97;;
7795;SDS011;3942;51.518;6.912;2022-10-31T22:52:57;9.50;;;4.25;;
7795;SDS011;3942;51.518;6.912;2022-10-31T22:57:59;12.60;;;5.20;;
7795;SDS011;3942;51.518;6.912;2022-10-31T23:03:01;8.02;;;4.13;;
7795;SDS011;3942;51.518;6.912;2022-10-31T23:08:04;13.07;;;4.85;;
7795;SDS011;3942;51.518;6.912;2022-10-31T23:13:07;12.20;;;4.22;;
7795;SDS011;3942;51.518;6.912;2022-10-31T23:18:26;10.20;;;3.90;;
7795;SDS011;3942;51.518;6.912;2022-10-31T23:23:32;10.05;;;3.95;;
7795;SDS011;3942;51.518;6.912;2022-10-31T23:28:34;10.23;;;3.72;;
7795;SDS011;3942;51.518;6.912;2022-10-31T23:33:36;11.02;;;3.88;;
7795;SDS011;3942;51.518;6.912;2022-10-31T23:38:39;11.63;;;3.83;;
7795;SDS011;3942;51.518;6.912;2022-10-31T23:43:41;9.85;;;3.80;;
7795;SDS011;3942;51.518;6.912;2022-10-31T23:48:43;15.25;;;5.10;;
7795;SDS011;3942;51.518;6.912;2022-10-31T23:53:48;9.77;;;3.88;;
7795;SDS011;3942;51.518;6.912;2022-10-31T23:58:50;11.63;;;4.25;;
